sensor_id;sensor_type;location;lat;lon;timestamp;P1;durP1;ratioP1;P2;durP2;ratioP2
81336;SDS011;70799;48.000;10.584;2024-03-07T00:02:26;14.75;;;5.10;;
81336;SDS011;70799;48.000;10.584;2024-03-07T00:05:02;15.90;;;5.78;;
81336;SDS011;70799;48.000;10.584;2024-03-07T00:07:40;14.75;;;4.90;;
81336;SDS011;70799;48.000;10.584;2024-03-07T00:12:53;14.27;;;4.95;;
81336;SDS011;70799;48.000;10.584;2024-03-07T00:15:29;14.18;;;4.45;;
81336;SDS011;70799;48.000;10.584;2024-03-07T00:18:05;16.77;;;5.30;;
81336;SDS011;70799;48.000;10.584;2024-03-07T00:20:43;14.38;;;4.85;;
81336;SDS011;70799;48.000;10.584;2024-03-07T00:23:19;13.63;;;4.93;;
81336;SDS011;70799;48.000;10.584;2024-03-07T00:25:55;14.35;;;4.97;;
81336;SDS011;70799;48.000;10.584;2024-03-07T00:28:34;20.50;;;4.88;;
81336;SDS011;70799;48.000;10.584;2024-03-07T00:31:11;13.15;;;5.00;;
81336;SDS011;70799;48.000;10.584;2024-03-07T00:33:47;15.00;;;5.30;;
81336;SDS011;70799;48.000;10.584;2024-03-07T00:36:40;14.55;;;5.53;;
81336;SDS011;70799;48.000;10.584;2024-03-07T00:39:19;14.65;;;4.95;;
81336;SDS011;70799;48.000;10.584;2024-03-07T00:41:56;15.02;;;5.05;;
81336;SDS011;70799;48.000;10.584;2024-03-07T00:44:40;16.25;;;4.97;;
81336;SDS011;70799;48.000;10.584;2024-03-07T00:47:16;17.00;;;4.90;;
81336;SDS011;70799;48.000;10.584;2024-03-07T00:49:55;15.90;;;4.82;;
81336;SDS011;70799;48.000;10.584;2024-03-07T00:52:34;16.52;;;5.75;;
81336;SDS011;70799;48.000;10.584;2024-03-07T00:55:10;14.57;;;5.55;;
81336;SDS011;70799;48.000;10.584;2024-03-07T00:57:46;11.77;;;4.40;;
81336;SDS011;70799;48.000;10.584;2024-03-07T01:04:31;15.02;;;4.70;;
81336;SDS011;70799;48.000;10.584;2024-03-07T01:07:07;16.13;;;5.55;;
81336;SDS011;70799;48.000;10.584;2024-03-07T01:09:43;15.82;;;4.97;;
81336;SDS011;70799;48.000;10.584;2024-03-07T01:12:19;13.23;;;5.10;;
81336;SDS011;70799;48.000;10.584;2024-03-07T01:14:59;15.27;;;5.22;;
81336;SDS011;70799;48.000;10.584;2024-03-07T01:17:39;16.65;;;5.97;;
81336;SDS011;70799;48.000;10.584;2024-03-07T01:20:17;17.83;;;5.30;;
81336;SDS011;70799;48.000;10.584;2024-03-07T01:25:29;17.65;;;5.10;;
81336;SDS011;70799;48.000;10.584;2024-03-07T01:28:05;20.00;;;5.88;;
81336;SDS011;70799;48.000;10.584;2024-03-07T01:30:44;17.15;;;5.30;;
81336;SDS011;70799;48.000;10.584;2024-03-07T01:33:20;24.08;;;6.05;;
81336;SDS011;70799;48.000;10.584;2024-03-07T01:35:57;16.15;;;5.25;;
81336;SDS011;70799;48.000;10.584;2024-03-07T01:38:38;17.40;;;5.82;;
81336;SDS011;70799;48.000;10.584;2024-03-07T01:41:14;18.55;;;6.07;;
81336;SDS011;70799;48.000;10.584;2024-03-07T01:49:02;15.05;;;5.47;;
81336;SDS011;70799;48.000;10.584;2024-03-07T01:51:39;14.70;;;5.25;;
81336;SDS011;70799;48.000;10.584;2024-03-07T01:59:27;15.45;;;5.50;;
81336;SDS011;70799;48.000;10.584;2024-03-07T02:02:04;17.02;;;5.60;;
81336;SDS011;70799;48.000;10.584;2024-03-07T02:10:26;12.98;;;5.00;;
81336;SDS011;70799;48.000;10.584;2024-03-07T02:18:06;17.08;;;5.05;;
81336;SDS011;70799;48.000;10.584;2024-03-07T02:20:44;20.30;;;5.65;;
81336;SDS011;70799;48.000;10.584;2024-03-07T02:23:21;19.83;;;7.28;;
81336;SDS011;70799;48.000;10.584;2024-03-07T02:25:57;19.80;;;6.32;;
81336;SDS011;70799;48.000;10.584;2024-03-07T02:28:34;18.40;;;5.85;;
81336;SDS011;70799;48.000;10.584;2024-03-07T02:31:10;20.88;;;7.57;;
81336;SDS011;70799;48.000;10.584;2024-03-07T02:33:46;19.67;;;6.68;;
81336;SDS011;70799;48.000;10.584;2024-03-07T02:36:22;23.73;;;7.38;;
81336;SDS011;70799;48.000;10.584;2024-03-07T02:38:58;19.35;;;6.20;;
81336;SDS011;70799;48.000;10.584;2024-03-07T02:41:35;22.08;;;6.93;;
81336;SDS011;70799;48.000;10.584;2024-03-07T02:44:11;19.20;;;7.35;;
81336;SDS011;70799;48.000;10.584;2024-03-07T02:46:47;22.60;;;7.35;;
81336;SDS011;70799;48.000;10.584;2024-03-07T02:54:39;17.20;;;5.97;;
81336;SDS011;70799;48.000;10.584;2024-03-07T02:57:15;18.38;;;7.05;;
81336;SDS011;70799;48.000;10.584;2024-03-07T02:59:51;22.38;;;6.88;;
81336;SDS011;70799;48.000;10.584;2024-03-07T03:02:27;19.45;;;6.70;;
81336;SDS011;70799;48.000;10.584;2024-03-07T03:05:03;19.50;;;6.70;;
81336;SDS011;70799;48.000;10.584;2024-03-07T03:07:42;23.55;;;7.60;;
81336;SDS011;70799;48.000;10.584;2024-03-07T03:10:25;25.02;;;6.88;;
81336;SDS011;70799;48.000;10.584;2024-03-07T03:13:03;21.98;;;6.22;;
81336;SDS011;70799;48.000;10.584;2024-03-07T03:15:40;22.52;;;6.35;;
81336;SDS011;70799;48.000;10.584;2024-03-07T03:18:16;22.77;;;7.43;;
81336;SDS011;70799;48.000;10.584;2024-03-07T03:20:52;24.67;;;7.20;;
81336;SDS011;70799;48.000;10.584;2024-03-07T03:23:29;20.17;;;7.60;;
81336;SDS011;70799;48.000;10.584;2024-03-07T03:26:06;29.90;;;7.95;;
81336;SDS011;70799;48.000;10.584;2024-03-07T03:28:42;21.38;;;7.32;;
81336;SDS011;70799;48.000;10.584;2024-03-07T03:31:18;21.00;;;7.97;;
81336;SDS011;70799;48.000;10.584;2024-03-07T03:33:55;26.38;;;7.88;;
81336;SDS011;70799;48.000;10.584;2024-03-07T03:36:33;25.73;;;7.90;;
81336;SDS011;70799;48.000;10.584;2024-03-07T03:39:09;29.85;;;8.25;;
81336;SDS011;70799;48.000;10.584;2024-03-07T03:41:45;24.17;;;7.72;;
81336;SDS011;70799;48.000;10.584;2024-03-07T03:44:22;25.45;;;7.97;;
81336;SDS011;70799;48.000;10.584;2024-03-07T03:46:58;36.80;;;9.75;;
81336;SDS011;70799;48.000;10.584;2024-03-07T03:49:36;48.55;;;9.52;;
81336;SDS011;70799;48.000;10.584;2024-03-07T03:52:12;28.88;;;9.75;;
81336;SDS011;70799;48.000;10.584;2024-03-07T03:54:48;53.92;;;11.75;;
81336;SDS011;70799;48.000;10.584;2024-03-07T03:57:24;49.20;;;9.63;;
81336;SDS011;70799;48.000;10.584;2024-03-07T04:00:00;30.30;;;9.95;;
81336;SDS011;70799;48.000;10.584;2024-03-07T04:02:45;51.30;;;10.68;;
81336;SDS011;70799;48.000;10.584;2024-03-07T04:05:22;34.13;;;9.80;;
81336;SDS011;70799;48.000;10.584;2024-03-07T04:07:58;35.65;;;10.48;;
81336;SDS011;70799;48.000;10.584;2024-03-07T04:10:36;34.42;;;9.63;;
81336;SDS011;70799;48.000;10.584;2024-03-07T04:13:12;38.17;;;10.40;;
81336;SDS011;70799;48.000;10.584;2024-03-07T04:21:01;25.55;;;7.72;;
81336;SDS011;70799;48.000;10.584;2024-03-07T04:26:15;24.83;;;8.00;;
81336;SDS011;70799;48.000;10.584;2024-03-07T04:39:14;30.00;;;7.15;;
81336;SDS011;70799;48.000;10.584;2024-03-07T04:42:00;28.85;;;8.65;;
81336;SDS011;70799;48.000;10.584;2024-03-07T04:44:38;33.78;;;8.07;;
81336;SDS011;70799;48.000;10.584;2024-03-07T04:47:14;32.25;;;9.13;;
81336;SDS011;70799;48.000;10.584;2024-03-07T04:49:50;37.30;;;10.95;;
81336;SDS011;70799;48.000;10.584;2024-03-07T04:52:26;36.10;;;10.73;;
81336;SDS011;70799;48.000;10.584;2024-03-07T04:55:02;32.70;;;9.35;;
81336;SDS011;70799;48.000;10.584;2024-03-07T04:57:40;34.05;;;10.07;;
81336;SDS011;70799;48.000;10.584;2024-03-07T05:00:16;35.30;;;10.98;;
81336;SDS011;70799;48.000;10.584;2024-03-07T05:02:53;38.67;;;10.98;;
81336;SDS011;70799;48.000;10.584;2024-03-07T05:05:30;37.58;;;10.95;;
81336;SDS011;70799;48.000;10.584;2024-03-07T05:08:06;42.63;;;10.77;;
81336;SDS011;70799;48.000;10.584;2024-03-07T05:10:42;46.70;;;10.30;;
81336;SDS011;70799;48.000;10.584;2024-03-07T05:13:18;40.95;;;10.75;;
81336;SDS011;70799;48.000;10.584;2024-03-07T05:15:55;49.53;;;10.38;;
81336;SDS011;70799;48.000;10.584;2024-03-07T05:18:33;63.97;;;11.60;;
81336;SDS011;70799;48.000;10.584;2024-03-07T05:21:12;45.83;;;10.65;;
81336;SDS011;70799;48.000;10.584;2024-03-07T05:24:00;42.38;;;10.52;;
81336;SDS011;70799;48.000;10.584;2024-03-07T05:26:37;52.58;;;11.18;;
81336;SDS011;70799;48.000;10.584;2024-03-07T05:29:13;53.15;;;11.60;;
81336;SDS011;70799;48.000;10.584;2024-03-07T05:31:50;40.28;;;10.70;;
81336;SDS011;70799;48.000;10.584;2024-03-07T05:34:26;46.50;;;11.88;;
81336;SDS011;70799;48.000;10.584;2024-03-07T05:37:05;37.72;;;9.90;;
81336;SDS011;70799;48.000;10.584;2024-03-07T05:39:41;41.60;;;10.60;;
81336;SDS011;70799;48.000;10.584;2024-03-07T05:42:17;52.55;;;11.82;;
81336;SDS011;70799;48.000;10.584;2024-03-07T05:44:57;38.35;;;9.90;;
81336;SDS011;70799;48.000;10.584;2024-03-07T05:47:35;50.65;;;10.80;;
81336;SDS011;70799;48.000;10.584;2024-03-07T05:50:11;51.25;;;12.90;;
81336;SDS011;70799;48.000;10.584;2024-03-07T05:52:47;48.03;;;12.23;;
81336;SDS011;70799;48.000;10.584;2024-03-07T05:55:23;50.78;;;12.07;;
81336;SDS011;70799;48.000;10.584;2024-03-07T05:57:59;47.28;;;11.00;;
81336;SDS011;70799;48.000;10.584;2024-03-07T06:00:38;38.17;;;9.90;;
81336;SDS011;70799;48.000;10.584;2024-03-07T06:03:16;37.00;;;10.52;;
81336;SDS011;70799;48.000;10.584;2024-03-07T06:05:53;49.15;;;11.55;;
81336;SDS011;70799;48.000;10.584;2024-03-07T06:08:29;42.95;;;9.60;;
81336;SDS011;70799;48.000;10.584;2024-03-07T06:13:43;46.70;;;11.20;;
81336;SDS011;70799;48.000;10.584;2024-03-07T06:16:19;50.35;;;12.15;;
81336;SDS011;70799;48.000;10.584;2024-03-07T06:18:55;51.67;;;11.95;;
81336;SDS011;70799;48.000;10.584;2024-03-07T06:21:33;44.97;;;11.98;;
81336;SDS011;70799;48.000;10.584;2024-03-07T06:24:11;51.28;;;11.60;;
81336;SDS011;70799;48.000;10.584;2024-03-07T06:26:51;44.95;;;11.15;;
81336;SDS011;70799;48.000;10.584;2024-03-07T06:29:36;72.35;;;13.75;;
81336;SDS011;70799;48.000;10.584;2024-03-07T06:32:15;80.43;;;13.93;;
81336;SDS011;70799;48.000;10.584;2024-03-07T06:37:27;50.10;;;14.02;;
81336;SDS011;70799;48.000;10.584;2024-03-07T06:40:03;51.22;;;12.88;;
81336;SDS011;70799;48.000;10.584;2024-03-07T06:42:42;49.20;;;13.23;;
81336;SDS011;70799;48.000;10.584;2024-03-07T06:45:18;47.63;;;12.20;;
81336;SDS011;70799;48.000;10.584;2024-03-07T06:47:56;46.33;;;12.27;;
81336;SDS011;70799;48.000;10.584;2024-03-07T06:50:34;44.55;;;12.30;;
81336;SDS011;70799;48.000;10.584;2024-03-07T06:53:10;40.90;;;12.80;;
81336;SDS011;70799;48.000;10.584;2024-03-07T06:55:47;45.70;;;13.48;;
81336;SDS011;70799;48.000;10.584;2024-03-07T06:58:25;43.33;;;12.25;;
81336;SDS011;70799;48.000;10.584;2024-03-07T07:01:04;54.00;;;13.52;;
81336;SDS011;70799;48.000;10.584;2024-03-07T07:03:44;47.10;;;14.02;;
81336;SDS011;70799;48.000;10.584;2024-03-07T07:06:21;47.50;;;13.23;;
81336;SDS011;70799;48.000;10.584;2024-03-07T07:08:58;50.55;;;13.57;;
81336;SDS011;70799;48.000;10.584;2024-03-07T07:11:35;40.72;;;13.18;;
81336;SDS011;70799;48.000;10.584;2024-03-07T07:14:12;35.15;;;13.32;;
81336;SDS011;70799;48.000;10.584;2024-03-07T07:16:53;36.05;;;12.35;;
81336;SDS011;70799;48.000;10.584;2024-03-07T07:19:29;39.80;;;13.65;;
81336;SDS011;70799;48.000;10.584;2024-03-07T07:22:08;38.80;;;12.48;;
81336;SDS011;70799;48.000;10.584;2024-03-07T07:24:44;35.53;;;14.20;;
81336;SDS011;70799;48.000;10.584;2024-03-07T07:27:21;34.88;;;13.05;;
81336;SDS011;70799;48.000;10.584;2024-03-07T07:29:57;42.58;;;13.95;;
81336;SDS011;70799;48.000;10.584;2024-03-07T07:32:37;36.72;;;13.90;;
81336;SDS011;70799;48.000;10.584;2024-03-07T07:35:13;37.38;;;16.08;;
81336;SDS011;70799;48.000;10.584;2024-03-07T07:40:28;36.13;;;13.43;;
81336;SDS011;70799;48.000;10.584;2024-03-07T07:43:05;38.50;;;13.88;;
81336;SDS011;70799;48.000;10.584;2024-03-07T07:45:47;42.03;;;14.18;;
81336;SDS011;70799;48.000;10.584;2024-03-07T07:48:23;55.25;;;17.25;;
81336;SDS011;70799;48.000;10.584;2024-03-07T07:51:00;63.22;;;21.77;;
81336;SDS011;70799;48.000;10.584;2024-03-07T07:53:38;71.13;;;24.38;;
81336;SDS011;70799;48.000;10.584;2024-03-07T07:56:14;77.97;;;27.35;;
81336;SDS011;70799;48.000;10.584;2024-03-07T07:58:50;78.82;;;25.35;;
81336;SDS011;70799;48.000;10.584;2024-03-07T08:01:26;101.38;;;31.33;;
81336;SDS011;70799;48.000;10.584;2024-03-07T08:04:03;107.18;;;31.52;;
81336;SDS011;70799;48.000;10.584;2024-03-07T08:06:41;105.53;;;29.02;;
81336;SDS011;70799;48.000;10.584;2024-03-07T08:09:19;122.07;;;32.65;;
81336;SDS011;70799;48.000;10.584;2024-03-07T08:11:54;84.93;;;28.27;;
81336;SDS011;70799;48.000;10.584;2024-03-07T08:14:35;101.75;;;30.58;;
81336;SDS011;70799;48.000;10.584;2024-03-07T08:17:11;98.43;;;28.95;;
81336;SDS011;70799;48.000;10.584;2024-03-07T08:19:47;138.52;;;34.10;;
81336;SDS011;70799;48.000;10.584;2024-03-07T08:22:24;114.13;;;31.75;;
81336;SDS011;70799;48.000;10.584;2024-03-07T08:25:00;120.32;;;33.45;;
81336;SDS011;70799;48.000;10.584;2024-03-07T08:27:41;114.30;;;32.78;;
81336;SDS011;70799;48.000;10.584;2024-03-07T08:30:19;139.75;;;34.13;;
81336;SDS011;70799;48.000;10.584;2024-03-07T08:32:56;102.50;;;29.50;;
81336;SDS011;70799;48.000;10.584;2024-03-07T08:35:35;123.15;;;34.63;;
81336;SDS011;70799;48.000;10.584;2024-03-07T08:38:14;107.18;;;32.40;;
81336;SDS011;70799;48.000;10.584;2024-03-07T08:40:49;110.00;;;33.00;;
81336;SDS011;70799;48.000;10.584;2024-03-07T08:43:27;98.10;;;30.17;;
81336;SDS011;70799;48.000;10.584;2024-03-07T08:46:03;100.85;;;32.35;;
81336;SDS011;70799;48.000;10.584;2024-03-07T08:48:38;106.13;;;34.83;;
81336;SDS011;70799;48.000;10.584;2024-03-07T08:53:51;88.57;;;30.65;;
81336;SDS011;70799;48.000;10.584;2024-03-07T08:56:27;81.20;;;29.15;;
81336;SDS011;70799;48.000;10.584;2024-03-07T08:59:03;82.55;;;30.27;;
81336;SDS011;70799;48.000;10.584;2024-03-07T09:04:17;75.05;;;26.77;;
81336;SDS011;70799;48.000;10.584;2024-03-07T09:06:54;76.30;;;27.83;;
81336;SDS011;70799;48.000;10.584;2024-03-07T09:09:33;83.05;;;29.20;;
81336;SDS011;70799;48.000;10.584;2024-03-07T09:12:10;77.78;;;29.75;;
81336;SDS011;70799;48.000;10.584;2024-03-07T09:14:47;89.80;;;29.52;;
81336;SDS011;70799;48.000;10.584;2024-03-07T09:17:34;90.40;;;31.42;;
81336;SDS011;70799;48.000;10.584;2024-03-07T09:20:23;86.53;;;29.05;;
81336;SDS011;70799;48.000;10.584;2024-03-07T09:23:18;95.60;;;33.03;;
81336;SDS011;70799;48.000;10.584;2024-03-07T09:25:57;94.72;;;31.92;;
81336;SDS011;70799;48.000;10.584;2024-03-07T09:28:36;88.85;;;32.75;;
81336;SDS011;70799;48.000;10.584;2024-03-07T09:31:15;78.95;;;28.65;;
81336;SDS011;70799;48.000;10.584;2024-03-07T09:33:51;70.30;;;28.60;;
81336;SDS011;70799;48.000;10.584;2024-03-07T09:36:30;81.70;;;31.27;;
81336;SDS011;70799;48.000;10.584;2024-03-07T09:41:44;87.20;;;28.83;;
81336;SDS011;70799;48.000;10.584;2024-03-07T09:44:20;76.63;;;29.20;;
81336;SDS011;70799;48.000;10.584;2024-03-07T09:46:58;80.15;;;31.58;;
81336;SDS011;70799;48.000;10.584;2024-03-07T09:49:34;87.15;;;31.40;;
81336;SDS011;70799;48.000;10.584;2024-03-07T09:52:11;88.97;;;31.17;;
81336;SDS011;70799;48.000;10.584;2024-03-07T09:54:48;82.03;;;30.75;;
81336;SDS011;70799;48.000;10.584;2024-03-07T09:57:24;87.97;;;31.48;;
81336;SDS011;70799;48.000;10.584;2024-03-07T10:00:04;91.03;;;31.25;;
81336;SDS011;70799;48.000;10.584;2024-03-07T10:02:44;85.70;;;30.27;;
81336;SDS011;70799;48.000;10.584;2024-03-07T10:05:20;90.45;;;30.48;;
81336;SDS011;70799;48.000;10.584;2024-03-07T10:07:59;86.57;;;29.63;;
81336;SDS011;70799;48.000;10.584;2024-03-07T10:10:39;78.70;;;28.83;;
81336;SDS011;70799;48.000;10.584;2024-03-07T10:13:15;73.32;;;29.23;;
81336;SDS011;70799;48.000;10.584;2024-03-07T10:15:53;88.90;;;32.67;;
81336;SDS011;70799;48.000;10.584;2024-03-07T10:18:41;80.55;;;28.05;;
81336;SDS011;70799;48.000;10.584;2024-03-07T10:21:19;87.95;;;32.42;;
81336;SDS011;70799;48.000;10.584;2024-03-07T10:24:05;77.93;;;28.92;;
81336;SDS011;70799;48.000;10.584;2024-03-07T10:26:43;78.80;;;29.35;;
81336;SDS011;70799;48.000;10.584;2024-03-07T10:29:19;70.50;;;27.48;;
81336;SDS011;70799;48.000;10.584;2024-03-07T10:31:57;66.63;;;26.67;;
81336;SDS011;70799;48.000;10.584;2024-03-07T10:34:36;76.15;;;28.05;;
81336;SDS011;70799;48.000;10.584;2024-03-07T10:37:18;78.63;;;29.63;;
81336;SDS011;70799;48.000;10.584;2024-03-07T10:39:54;71.93;;;28.58;;
81336;SDS011;70799;48.000;10.584;2024-03-07T10:42:30;79.18;;;28.02;;
81336;SDS011;70799;48.000;10.584;2024-03-07T10:45:10;76.53;;;28.27;;
81336;SDS011;70799;48.000;10.584;2024-03-07T10:59:41;66.90;;;26.83;;
81336;SDS011;70799;48.000;10.584;2024-03-07T11:02:40;66.47;;;27.35;;
81336;SDS011;70799;48.000;10.584;2024-03-07T11:05:21;61.78;;;27.40;;
81336;SDS011;70799;48.000;10.584;2024-03-07T11:08:02;70.32;;;28.90;;
81336;SDS011;70799;48.000;10.584;2024-03-07T11:13:20;59.38;;;25.83;;
81336;SDS011;70799;48.000;10.584;2024-03-07T11:15:57;64.57;;;27.60;;
81336;SDS011;70799;48.000;10.584;2024-03-07T11:18:35;59.70;;;26.92;;
81336;SDS011;70799;48.000;10.584;2024-03-07T11:24:25;57.90;;;27.35;;
81336;SDS011;70799;48.000;10.584;2024-03-07T11:27:04;67.72;;;28.00;;
81336;SDS011;70799;48.000;10.584;2024-03-07T11:29:48;61.95;;;26.58;;
81336;SDS011;70799;48.000;10.584;2024-03-07T11:32:28;63.35;;;27.75;;
81336;SDS011;70799;48.000;10.584;2024-03-07T11:35:15;58.33;;;24.98;;
81336;SDS011;70799;48.000;10.584;2024-03-07T11:37:58;55.25;;;25.67;;
81336;SDS011;70799;48.000;10.584;2024-03-07T11:43:14;58.67;;;27.02;;
81336;SDS011;70799;48.000;10.584;2024-03-07T11:45:50;55.08;;;25.60;;
81336;SDS011;70799;48.000;10.584;2024-03-07T11:48:30;61.17;;;27.45;;
81336;SDS011;70799;48.000;10.584;2024-03-07T11:51:06;60.90;;;26.27;;
81336;SDS011;70799;48.000;10.584;2024-03-07T11:53:43;67.28;;;27.90;;
81336;SDS011;70799;48.000;10.584;2024-03-07T11:56:20;62.17;;;28.40;;
81336;SDS011;70799;48.000;10.584;2024-03-07T11:58:56;63.58;;;27.38;;
81336;SDS011;70799;48.000;10.584;2024-03-07T12:01:34;66.93;;;27.98;;
81336;SDS011;70799;48.000;10.584;2024-03-07T12:04:11;69.88;;;31.58;;
81336;SDS011;70799;48.000;10.584;2024-03-07T12:06:51;70.38;;;28.38;;
81336;SDS011;70799;48.000;10.584;2024-03-07T12:09:28;72.85;;;29.05;;
81336;SDS011;70799;48.000;10.584;2024-03-07T12:12:07;68.25;;;29.45;;
81336;SDS011;70799;48.000;10.584;2024-03-07T12:14:44;68.40;;;27.20;;
81336;SDS011;70799;48.000;10.584;2024-03-07T12:19:57;56.38;;;25.05;;
81336;SDS011;70799;48.000;10.584;2024-03-07T12:22:57;55.60;;;24.38;;
81336;SDS011;70799;48.000;10.584;2024-03-07T12:25:35;72.35;;;28.83;;
81336;SDS011;70799;48.000;10.584;2024-03-07T12:28:12;63.85;;;26.25;;
81336;SDS011;70799;48.000;10.584;2024-03-07T12:30:50;60.88;;;26.30;;
81336;SDS011;70799;48.000;10.584;2024-03-07T12:33:27;62.53;;;27.75;;
81336;SDS011;70799;48.000;10.584;2024-03-07T12:36:12;57.67;;;25.85;;
81336;SDS011;70799;48.000;10.584;2024-03-07T12:38:52;62.95;;;26.55;;
81336;SDS011;70799;48.000;10.584;2024-03-07T12:41:29;59.60;;;26.08;;
81336;SDS011;70799;48.000;10.584;2024-03-07T12:44:05;56.42;;;24.30;;
81336;SDS011;70799;48.000;10.584;2024-03-07T12:46:48;60.33;;;26.98;;
81336;SDS011;70799;48.000;10.584;2024-03-07T12:49:28;66.97;;;25.70;;
81336;SDS011;70799;48.000;10.584;2024-03-07T12:54:41;58.95;;;23.98;;
81336;SDS011;70799;48.000;10.584;2024-03-07T12:57:19;58.67;;;24.92;;
81336;SDS011;70799;48.000;10.584;2024-03-07T12:59:56;66.20;;;27.25;;
81336;SDS011;70799;48.000;10.584;2024-03-07T13:02:35;56.92;;;24.25;;
81336;SDS011;70799;48.000;10.584;2024-03-07T13:05:14;52.13;;;23.02;;
81336;SDS011;70799;48.000;10.584;2024-03-07T13:07:54;54.95;;;24.67;;
81336;SDS011;70799;48.000;10.584;2024-03-07T13:10:30;47.28;;;20.42;;
81336;SDS011;70799;48.000;10.584;2024-03-07T13:13:06;49.78;;;21.60;;
81336;SDS011;70799;48.000;10.584;2024-03-07T13:15:43;49.42;;;22.23;;
81336;SDS011;70799;48.000;10.584;2024-03-07T13:18:19;46.95;;;21.95;;
81336;SDS011;70799;48.000;10.584;2024-03-07T13:20:56;48.67;;;22.08;;
81336;SDS011;70799;48.000;10.584;2024-03-07T13:23:36;50.53;;;22.30;;
81336;SDS011;70799;48.000;10.584;2024-03-07T13:26:16;43.97;;;21.60;;
81336;SDS011;70799;48.000;10.584;2024-03-07T13:28:58;46.00;;;21.77;;
81336;SDS011;70799;48.000;10.584;2024-03-07T13:31:35;48.80;;;22.40;;
81336;SDS011;70799;48.000;10.584;2024-03-07T13:34:12;48.50;;;20.55;;
81336;SDS011;70799;48.000;10.584;2024-03-07T13:36:48;43.53;;;20.77;;
81336;SDS011;70799;48.000;10.584;2024-03-07T13:39:27;48.63;;;22.35;;
81336;SDS011;70799;48.000;10.584;2024-03-07T13:42:03;42.65;;;20.38;;
81336;SDS011;70799;48.000;10.584;2024-03-07T13:44:43;40.70;;;19.42;;
81336;SDS011;70799;48.000;10.584;2024-03-07T13:47:19;45.22;;;20.23;;
81336;SDS011;70799;48.000;10.584;2024-03-07T13:49:55;43.10;;;20.50;;
81336;SDS011;70799;48.000;10.584;2024-03-07T13:52:34;39.67;;;19.15;;
81336;SDS011;70799;48.000;10.584;2024-03-07T13:55:15;42.55;;;18.83;;
81336;SDS011;70799;48.000;10.584;2024-03-07T14:06:02;41.42;;;19.50;;
81336;SDS011;70799;48.000;10.584;2024-03-07T14:08:54;36.35;;;16.85;;
81336;SDS011;70799;48.000;10.584;2024-03-07T14:18:11;35.75;;;18.05;;
81336;SDS011;70799;48.000;10.584;2024-03-07T14:33:18;31.00;;;15.13;;
81336;SDS011;70799;48.000;10.584;2024-03-07T14:36:06;33.03;;;16.40;;
81336;SDS011;70799;48.000;10.584;2024-03-07T14:38:47;31.58;;;15.90;;
81336;SDS011;70799;48.000;10.584;2024-03-07T14:44:39;27.65;;;13.70;;
81336;SDS011;70799;48.000;10.584;2024-03-07T14:47:16;31.20;;;14.18;;
81336;SDS011;70799;48.000;10.584;2024-03-07T14:49:54;30.65;;;15.60;;
81336;SDS011;70799;48.000;10.584;2024-03-07T14:52:34;35.05;;;17.25;;
81336;SDS011;70799;48.000;10.584;2024-03-07T14:55:12;30.75;;;16.00;;
81336;SDS011;70799;48.000;10.584;2024-03-07T14:57:51;30.80;;;15.98;;
81336;SDS011;70799;48.000;10.584;2024-03-07T15:03:09;28.83;;;15.02;;
81336;SDS011;70799;48.000;10.584;2024-03-07T15:05:48;26.35;;;13.25;;
81336;SDS011;70799;48.000;10.584;2024-03-07T15:08:25;30.08;;;15.18;;
81336;SDS011;70799;48.000;10.584;2024-03-07T15:11:05;22.77;;;12.27;;
81336;SDS011;70799;48.000;10.584;2024-03-07T15:13:49;22.80;;;11.98;;
81336;SDS011;70799;48.000;10.584;2024-03-07T15:16:27;29.95;;;14.60;;
81336;SDS011;70799;48.000;10.584;2024-03-07T15:19:08;27.13;;;14.75;;
81336;SDS011;70799;48.000;10.584;2024-03-07T15:21:44;29.45;;;13.88;;
81336;SDS011;70799;48.000;10.584;2024-03-07T15:24:24;29.23;;;14.30;;
81336;SDS011;70799;48.000;10.584;2024-03-07T15:27:00;29.17;;;14.75;;
81336;SDS011;70799;48.000;10.584;2024-03-07T15:29:39;28.73;;;15.05;;
81336;SDS011;70799;48.000;10.584;2024-03-07T15:32:15;30.65;;;15.88;;
81336;SDS011;70799;48.000;10.584;2024-03-07T15:34:54;29.70;;;14.75;;
81336;SDS011;70799;48.000;10.584;2024-03-07T15:37:30;31.85;;;14.90;;
81336;SDS011;70799;48.000;10.584;2024-03-07T15:40:09;32.60;;;16.42;;
81336;SDS011;70799;48.000;10.584;2024-03-07T15:42:49;31.67;;;16.13;;
81336;SDS011;70799;48.000;10.584;2024-03-07T15:45:26;35.38;;;16.83;;
81336;SDS011;70799;48.000;10.584;2024-03-07T15:48:03;31.30;;;17.38;;
81336;SDS011;70799;48.000;10.584;2024-03-07T15:50:43;31.95;;;15.25;;
81336;SDS011;70799;48.000;10.584;2024-03-07T15:53:19;33.47;;;15.60;;
81336;SDS011;70799;48.000;10.584;2024-03-07T15:58:33;32.67;;;15.93;;
81336;SDS011;70799;48.000;10.584;2024-03-07T16:01:09;34.55;;;16.88;;
81336;SDS011;70799;48.000;10.584;2024-03-07T16:03:48;30.75;;;15.38;;
81336;SDS011;70799;48.000;10.584;2024-03-07T16:06:25;32.35;;;15.25;;
81336;SDS011;70799;48.000;10.584;2024-03-07T16:09:01;33.38;;;16.40;;
81336;SDS011;70799;48.000;10.584;2024-03-07T16:14:13;29.20;;;14.20;;
81336;SDS011;70799;48.000;10.584;2024-03-07T16:16:49;31.13;;;15.32;;
81336;SDS011;70799;48.000;10.584;2024-03-07T16:19:25;29.52;;;14.32;;
81336;SDS011;70799;48.000;10.584;2024-03-07T16:22:02;31.77;;;15.10;;
81336;SDS011;70799;48.000;10.584;2024-03-07T16:24:43;32.78;;;15.27;;
81336;SDS011;70799;48.000;10.584;2024-03-07T16:27:19;27.90;;;13.98;;
81336;SDS011;70799;48.000;10.584;2024-03-07T16:29:55;32.88;;;15.18;;
81336;SDS011;70799;48.000;10.584;2024-03-07T16:32:35;26.48;;;13.50;;
81336;SDS011;70799;48.000;10.584;2024-03-07T16:35:11;34.17;;;14.73;;
81336;SDS011;70799;48.000;10.584;2024-03-07T16:37:48;31.23;;;15.75;;
81336;SDS011;70799;48.000;10.584;2024-03-07T16:40:26;30.25;;;15.70;;
81336;SDS011;70799;48.000;10.584;2024-03-07T16:43:02;31.80;;;14.48;;
81336;SDS011;70799;48.000;10.584;2024-03-07T16:45:44;35.33;;;15.45;;
81336;SDS011;70799;48.000;10.584;2024-03-07T16:48:22;31.10;;;15.77;;
81336;SDS011;70799;48.000;10.584;2024-03-07T16:51:00;36.15;;;15.10;;
81336;SDS011;70799;48.000;10.584;2024-03-07T16:53:38;31.27;;;14.77;;
81336;SDS011;70799;48.000;10.584;2024-03-07T16:56:14;32.47;;;14.65;;
81336;SDS011;70799;48.000;10.584;2024-03-07T16:58:50;34.58;;;15.50;;
81336;SDS011;70799;48.000;10.584;2024-03-07T17:04:03;33.20;;;15.35;;
81336;SDS011;70799;48.000;10.584;2024-03-07T17:06:46;37.20;;;16.73;;
81336;SDS011;70799;48.000;10.584;2024-03-07T17:09:35;31.30;;;15.30;;
81336;SDS011;70799;48.000;10.584;2024-03-07T17:12:14;32.70;;;15.20;;
81336;SDS011;70799;48.000;10.584;2024-03-07T17:14:53;31.40;;;15.25;;
81336;SDS011;70799;48.000;10.584;2024-03-07T17:20:06;34.03;;;14.88;;
81336;SDS011;70799;48.000;10.584;2024-03-07T17:22:42;31.80;;;16.10;;
81336;SDS011;70799;48.000;10.584;2024-03-07T17:25:20;30.45;;;14.48;;
81336;SDS011;70799;48.000;10.584;2024-03-07T17:28:03;32.13;;;15.55;;
81336;SDS011;70799;48.000;10.584;2024-03-07T17:30:39;36.58;;;16.38;;
81336;SDS011;70799;48.000;10.584;2024-03-07T17:33:15;35.88;;;17.30;;